Time;durP1;ratioP1;P1;durP2;ratioP2;P2;SDS_P1;SDS_P2;PMS_P1;PMS_P2;Temp;Humidity;BMP_temperature;BMP_pressure;BME280_temperature;BME280_humidity;BME280_pressure;Samples;Min_cycle;Max_cycle;Signal;HPM_P1;HPM_P2
2021/08/13 00:00:56;;;;;;;12.55;8.63;;;;;;;;;;4988458;28;20042;-69
2021/08/13 00:03:22;;;;;;;16.00;9.95;;;;;;;;;;4992729;28;20429;-69
2021/08/13 00:05:48;;;;;;;19.17;10.68;;;;;;;;;;4989127;28;20023;-69
2021/08/13 00:08:14;;;;;;;15.90;10.13;;;;;;;;;;4983811;28;20038;-69
2021/08/13 00:10:40;;;;;;;15.00;9.85;;;;;;;;;;4991369;28;20514;-69
2021/08/13 00:13:06;;;;;;;16.40;10.60;;;;;;;;;;4986987;28;20034;-68
2021/08/13 00:15:32;;;;;;;16.25;9.60;;;;;;;;;;4984720;28;20058;-69
2021/08/13 00:17:58;;;;;;;17.05;10.35;;;;;;;;;;4994351;28;20388;-70
2021/08/13 00:20:24;;;;;;;19.17;11.18;;;;;;;;;;4999918;28;20059;-69
2021/08/13 00:22:51;;;;;;;17.17;10.63;;;;;;;;;;5008806;28;20030;-69
2021/08/13 00:25:17;;;;;;;21.48;12.02;;;;;;;;;;4992338;28;20034;-69
2021/08/13 00:27:43;;;;;;;17.10;10.88;;;;;;;;;;5002242;28;20031;-69
2021/08/13 00:30:10;;;;;;;16.77;11.73;;;;;;;;;;4987184;28;20036;-69
2021/08/13 00:32:36;;;;;;;16.77;10.93;;;;;;;;;;4988127;28;20048;-69
2021/08/13 00:35:03;;;;;;;17.40;11.25;;;;;;;;;;4993486;28;20030;-69
2021/08/13 00:37:28;;;;;;;17.00;11.20;;;;;;;;;;4992596;28;20037;-69
2021/08/13 00:39:54;;;;;;;20.27;12.45;;;;;;;;;;4993148;28;20030;-69
2021/08/13 00:42:20;;;;;;;16.48;11.50;;;;;;;;;;4992169;28;20033;-69
2021/08/13 00:44:46;;;;;;;19.02;12.88;;;;;;;;;;4994639;28;20522;-69
2021/08/13 00:47:12;;;;;;;20.80;12.15;;;;;;;;;;4995794;28;20058;-70
2021/08/13 00:49:38;;;;;;;22.38;12.63;;;;;;;;;;4984647;28;20026;-69
2021/08/13 00:52:05;;;;;;;19.25;12.73;;;;;;;;;;4991706;28;20505;-69
2021/08/13 00:54:31;;;;;;;21.52;14.18;;;;;;;;;;4990557;28;20290;-69
2021/08/13 00:56:57;;;;;;;25.00;13.02;;;;;;;;;;5001296;28;20497;-69
2021/08/13 00:59:23;;;;;;;24.77;14.68;;;;;;;;;;4977403;28;20027;-69
2021/08/13 01:01:49;;;;;;;22.77;14.75;;;;;;;;;;4990427;28;20536;-69
2021/08/13 01:04:15;;;;;;;24.60;13.98;;;;;;;;;;4989978;28;20101;-68
2021/08/13 01:06:41;;;;;;;23.83;15.13;;;;;;;;;;4979112;28;20405;-69
2021/08/13 01:09:07;;;;;;;24.35;15.40;;;;;;;;;;4983926;28;20118;-69
2021/08/13 01:11:56;;;;;;;23.08;14.05;;;;;;;;;;4980013;28;20027;-69
2021/08/13 01:14:45;;;;;;;23.08;13.60;;;;;;;;;;4995236;28;20072;-68
2021/08/13 01:17:11;;;;;;;23.63;13.55;;;;;;;;;;4990685;28;20065;-69
2021/08/13 01:19:40;;;;;;;22.77;14.07;;;;;;;;;;4991026;28;20472;-69
2021/08/13 01:22:14;;;;;;;21.25;13.32;;;;;;;;;;4989785;28;20022;-69
2021/08/13 01:24:42;;;;;;;23.10;13.93;;;;;;;;;;4990428;28;20076;-69
2021/08/13 01:27:10;;;;;;;20.52;13.25;;;;;;;;;;4988556;28;20050;-69
2021/08/13 01:29:36;;;;;;;21.85;14.05;;;;;;;;;;4980878;28;20098;-69
2021/08/13 01:32:10;;;;;;;22.55;14.23;;;;;;;;;;4990693;28;20559;-69
2021/08/13 01:34:39;;;;;;;20.65;12.52;;;;;;;;;;4990096;28;20030;-69
2021/08/13 01:37:06;;;;;;;23.35;13.30;;;;;;;;;;4990631;28;20026;-69
2021/08/13 01:39:34;;;;;;;18.63;12.20;;;;;;;;;;4990681;28;20323;-69
2021/08/13 01:42:01;;;;;;;21.83;13.98;;;;;;;;;;4991123;28;20380;-69
2021/08/13 01:44:27;;;;;;;21.33;12.75;;;;;;;;;;5003833;28;20405;-69
2021/08/13 01:46:54;;;;;;;19.25;12.13;;;;;;;;;;4983558;28;20080;-69
2021/08/13 01:49:20;;;;;;;18.90;11.63;;;;;;;;;;4996306;28;20483;-69
2021/08/13 01:51:47;;;;;;;17.80;9.88;;;;;;;;;;5007708;28;20057;-69
2021/08/13 01:54:13;;;;;;;15.60;10.18;;;;;;;;;;4989806;28;20428;-68
2021/08/13 01:56:39;;;;;;;18.13;10.93;;;;;;;;;;4990389;28;20540;-69
2021/08/13 01:59:05;;;;;;;16.35;10.25;;;;;;;;;;4990554;28;20030;-69
2021/08/13 02:01:32;;;;;;;15.93;10.15;;;;;;;;;;5006378;28;20562;-69
2021/08/13 02:03:58;;;;;;;15.35;9.60;;;;;;;;;;4987006;28;20026;-69
2021/08/13 02:06:25;;;;;;;16.48;9.43;;;;;;;;;;4993044;28;20038;-69
2021/08/13 02:08:52;;;;;;;15.50;10.23;;;;;;;;;;4989807;28;20365;-69
2021/08/13 02:11:18;;;;;;;17.98;10.45;;;;;;;;;;4990023;28;20210;-69
2021/08/13 02:13:44;;;;;;;15.90;10.48;;;;;;;;;;4991399;28;20046;-69
2021/08/13 02:16:12;;;;;;;18.52;10.73;;;;;;;;;;4990432;28;20484;-69
2021/08/13 02:18:38;;;;;;;17.60;10.98;;;;;;;;;;4994427;28;20076;-69
2021/08/13 02:21:07;;;;;;;15.85;10.30;;;;;;;;;;4983928;28;20038;-69
2021/08/13 02:23:33;;;;;;;14.93;9.63;;;;;;;;;;4985730;28;20034;-69
2021/08/13 02:25:59;;;;;;;17.83;9.00;;;;;;;;;;4989717;28;20061;-69
2021/08/13 02:28:25;;;;;;;13.13;8.60;;;;;;;;;;4989533;28;20069;-69
2021/08/13 02:30:51;;;;;;;12.63;8.93;;;;;;;;;;4992157;28;20029;-70
2021/08/13 02:33:17;;;;;;;13.35;8.75;;;;;;;;;;4990197;28;20037;-69
2021/08/13 02:35:44;;;;;;;14.30;7.90;;;;;;;;;;4986852;28;20396;-70
2021/08/13 02:38:14;;;;;;;11.10;7.60;;;;;;;;;;4989349;28;20031;-69
2021/08/13 02:40:40;;;;;;;;;;;;;;;;;;4987485;28;20061;-69
2021/08/13 02:43:25;;;;;;;13.25;7.47;;;;;;;;;;4989799;28;19909;-69
2021/08/13 02:45:53;;;;;;;12.07;7.15;;;;;;;;;;4992862;28;20023;-69
2021/08/13 02:48:19;;;;;;;10.93;6.90;;;;;;;;;;4994146;28;20026;-69
2021/08/13 02:50:46;;;;;;;12.73;7.55;;;;;;;;;;4989244;28;20026;-69
2021/08/13 02:53:17;;;;;;;15.13;7.97;;;;;;;;;;4989493;28;20030;-69
2021/08/13 02:55:45;;;;;;;13.10;8.43;;;;;;;;;;4989426;28;20455;-69
2021/08/13 02:58:14;;;;;;;12.02;6.72;;;;;;;;;;4989350;28;20399;-69
2021/08/13 03:00:42;;;;;;;15.13;8.18;;;;;;;;;;4989416;28;20037;-69
2021/08/13 03:03:10;;;;;;;11.38;7.68;;;;;;;;;;4988182;28;20025;-69
2021/08/13 03:05:36;;;;;;;14.68;8.40;;;;;;;;;;4989435;28;20023;-69
2021/08/13 03:08:02;;;;;;;15.95;9.18;;;;;;;;;;4989383;28;20033;-69
2021/08/13 03:10:30;;;;;;;18.98;10.48;;;;;;;;;;4992761;28;20026;-69
2021/08/13 03:12:56;;;;;;;22.23;11.77;;;;;;;;;;4994852;28;20021;-68
2021/08/13 03:15:22;;;;;;;24.70;13.23;;;;;;;;;;5010699;28;20102;-69
2021/08/13 03:17:48;;;;;;;21.00;12.25;;;;;;;;;;5010516;28;20081;-69
2021/08/13 03:20:15;;;;;;;19.83;12.10;;;;;;;;;;4992968;28;20037;-69
2021/08/13 03:22:41;;;;;;;15.10;10.30;;;;;;;;;;4988874;28;20042;-69
2021/08/13 03:25:07;;;;;;;16.35;10.25;;;;;;;;;;4987007;28;20062;-69
2021/08/13 03:27:33;;;;;;;15.75;9.68;;;;;;;;;;4988922;28;20109;-69
2021/08/13 03:29:59;;;;;;;14.35;8.63;;;;;;;;;;4989421;28;20109;-69
2021/08/13 03:32:25;;;;;;;14.88;9.43;;;;;;;;;;4988672;28;20027;-70
2021/08/13 03:34:52;;;;;;;15.98;9.85;;;;;;;;;;4989121;28;20485;-69
2021/08/13 03:37:18;;;;;;;17.00;9.45;;;;;;;;;;4988393;28;20034;-69
2021/08/13 03:39:44;;;;;;;14.75;9.40;;;;;;;;;;4988840;28;20396;-69
2021/08/13 03:42:10;;;;;;;17.95;10.00;;;;;;;;;;4988506;28;20038;-69
2021/08/13 03:44:36;;;;;;;16.02;10.15;;;;;;;;;;4982967;28;20022;-69
2021/08/13 03:47:02;;;;;;;12.27;8.05;;;;;;;;;;4988905;28;20544;-69
2021/08/13 03:49:28;;;;;;;18.30;9.90;;;;;;;;;;4995097;28;20046;-69
2021/08/13 03:51:57;;;;;;;16.77;10.48;;;;;;;;;;4982146;28;20062;-69
2021/08/13 03:54:23;;;;;;;15.55;9.50;;;;;;;;;;4988850;28;20030;-69
2021/08/13 03:56:49;;;;;;;16.50;10.38;;;;;;;;;;4988433;28;20030;-69
2021/08/13 03:59:15;;;;;;;16.27;9.85;;;;;;;;;;5000304;28;20061;-69
2021/08/13 04:01:41;;;;;;;16.10;9.75;;;;;;;;;;4998854;28;20033;-69
2021/08/13 04:04:06;;;;;;;13.68;9.27;;;;;;;;;;4988565;28;20080;-69
2021/08/13 04:06:32;;;;;;;15.93;9.40;;;;;;;;;;4998693;28;20097;-69
2021/08/13 04:08:58;;;;;;;17.45;9.73;;;;;;;;;;4988703;28;20022;-69
2021/08/13 04:11:24;;;;;;;14.77;9.00;;;;;;;;;;4988701;28;20512;-69
2021/08/13 04:13:50;;;;;;;16.77;9.43;;;;;;;;;;4998894;28;20514;-69
2021/08/13 04:16:16;;;;;;;15.68;9.75;;;;;;;;;;4995767;28;20045;-69
2021/08/13 04:18:42;;;;;;;14.48;9.15;;;;;;;;;;4987444;28;20459;-69
2021/08/13 04:21:08;;;;;;;15.63;8.45;;;;;;;;;;4993406;28;20022;-69
2021/08/13 04:23:34;;;;;;;14.25;8.38;;;;;;;;;;4990848;28;20418;-69
2021/08/13 04:26:00;;;;;;;15.32;8.50;;;;;;;;;;4988226;28;20110;-69
2021/08/13 04:28:26;;;;;;;17.25;8.23;;;;;;;;;;4988152;28;20030;-69
2021/08/13 04:30:52;;;;;;;14.93;7.95;;;;;;;;;;4984259;28;20116;-69
2021/08/13 04:33:18;;;;;;;14.90;8.65;;;;;;;;;;4987832;28;20504;-69
2021/08/13 04:35:44;;;;;;;13.73;8.50;;;;;;;;;;4992963;28;20371;-69
2021/08/13 04:38:11;;;;;;;14.93;9.32;;;;;;;;;;4988205;28;20090;-69
2021/08/13 04:40:37;;;;;;;14.68;8.75;;;;;;;;;;4985093;28;20018;-69
2021/08/13 04:43:03;;;;;;;14.52;8.15;;;;;;;;;;4983589;28;20031;-69
2021/08/13 04:45:29;;;;;;;14.27;8.70;;;;;;;;;;4988222;28;20030;-69
2021/08/13 04:47:55;;;;;;;16.25;8.13;;;;;;;;;;4989347;28;20054;-69
2021/08/13 04:50:21;;;;;;;10.85;6.82;;;;;;;;;;4981894;28;20061;-69
2021/08/13 04:52:48;;;;;;;13.82;8.95;;;;;;;;;;4991014;28;20475;-69
2021/08/13 04:55:22;;;;;;;11.13;6.93;;;;;;;;;;4994404;28;20116;-69
2021/08/13 04:57:48;;;;;;;13.45;7.78;;;;;;;;;;4989184;28;20054;-69
2021/08/13 05:00:14;;;;;;;13.35;8.57;;;;;;;;;;4992151;28;20030;-69
2021/08/13 05:02:40;;;;;;;11.77;7.47;;;;;;;;;;4991897;28;20030;-69
2021/08/13 05:05:06;;;;;;;14.25;7.60;;;;;;;;;;4990807;28;20022;-69
2021/08/13 05:07:33;;;;;;;13.73;8.05;;;;;;;;;;4990602;28;20088;-69
2021/08/13 05:09:59;;;;;;;11.88;7.10;;;;;;;;;;4991533;28;20022;-69
2021/08/13 05:12:25;;;;;;;15.07;6.80;;;;;;;;;;4985408;28;20041;-69
2021/08/13 05:14:51;;;;;;;12.82;7.88;;;;;;;;;;4999025;28;20073;-69
2021/08/13 05:17:17;;;;;;;11.25;6.32;;;;;;;;;;4986414;28;20409;-69
2021/08/13 05:19:43;;;;;;;10.88;6.82;;;;;;;;;;4991155;28;20022;-69
2021/08/13 05:22:12;;;;;;;12.00;6.93;;;;;;;;;;4990770;28;20023;-69
2021/08/13 05:24:37;;;;;;;12.25;6.70;;;;;;;;;;4991263;28;20379;-69
2021/08/13 05:27:04;;;;;;;12.27;7.20;;;;;;;;;;4991352;28;20022;-69
2021/08/13 05:29:30;;;;;;;13.32;6.63;;;;;;;;;;4999184;28;20450;-69
2021/08/13 05:31:55;;;;;;;13.32;8.07;;;;;;;;;;4990685;28;20030;-69
2021/08/13 05:34:21;;;;;;;13.85;7.80;;;;;;;;;;4991089;28;20081;-69
2021/08/13 05:36:47;;;;;;;14.57;6.85;;;;;;;;;;4988889;28;20038;-69
2021/08/13 05:39:13;;;;;;;13.30;7.80;;;;;;;;;;4984835;28;20038;-69
2021/08/13 05:41:39;;;;;;;16.08;8.00;;;;;;;;;;4991563;28;20040;-69
2021/08/13 05:44:05;;;;;;;12.32;7.07;;;;;;;;;;5008387;28;20038;-69
2021/08/13 05:46:31;;;;;;;10.52;7.00;;;;;;;;;;5005473;28;20026;-69
2021/08/13 05:48:58;;;;;;;15.43;7.88;;;;;;;;;;5003283;28;20038;-69
2021/08/13 05:51:24;;;;;;;14.23;7.28;;;;;;;;;;4990594;28;20034;-69
2021/08/13 05:53:50;;;;;;;13.30;7.60;;;;;;;;;;4986914;28;20124;-68
2021/08/13 05:56:16;;;;;;;12.88;8.43;;;;;;;;;;5000765;28;20484;-69
2021/08/13 05:58:42;;;;;;;13.40;7.45;;;;;;;;;;4990272;28;20041;-69
2021/08/13 06:01:08;;;;;;;10.80;7.75;;;;;;;;;;4987065;28;20031;-69
2021/08/13 06:03:34;;;;;;;15.70;8.15;;;;;;;;;;4998655;28;20030;-69
2021/08/13 06:06:00;;;;;;;15.90;7.57;;;;;;;;;;4990398;28;20037;-69
2021/08/13 06:08:26;;;;;;;17.50;8.10;;;;;;;;;;4987127;28;20383;-69
2021/08/13 06:10:51;;;;;;;14.52;8.85;;;;;;;;;;4987160;28;20037;-69
2021/08/13 06:13:18;;;;;;;15.93;8.55;;;;;;;;;;4987801;28;20435;-69
2021/08/13 06:15:44;;;;;;;9.93;7.00;;;;;;;;;;4988369;28;20034;-69
2021/08/13 06:18:10;;;;;;;12.75;7.30;;;;;;;;;;4989960;28;20101;-69
2021/08/13 06:20:36;;;;;;;14.10;7.80;;;;;;;;;;4997916;28;20109;-69
2021/08/13 06:23:02;;;;;;;18.95;8.43;;;;;;;;;;4990512;28;20496;-69
2021/08/13 06:25:28;;;;;;;17.08;8.20;;;;;;;;;;4989484;28;20412;-69
2021/08/13 06:27:54;;;;;;;15.50;8.10;;;;;;;;;;4990182;28;20034;-69
2021/08/13 06:30:21;;;;;;;22.45;8.70;;;;;;;;;;4989438;28;20117;-69
2021/08/13 06:32:47;;;;;;;14.65;7.80;;;;;;;;;;4989650;28;20056;-69
2021/08/13 06:35:13;;;;;;;15.45;7.68;;;;;;;;;;4988280;28;20041;-69
2021/08/13 06:37:43;;;;;;;17.10;7.53;;;;;;;;;;4989583;28;20030;-69
2021/08/13 06:40:09;;;;;;;13.10;7.20;;;;;;;;;;4988502;28;20027;-69
2021/08/13 06:42:35;;;;;;;13.88;7.55;;;;;;;;;;4997865;28;20029;-69
2021/08/13 06:45:01;;;;;;;13.18;7.00;;;;;;;;;;4998055;28;20022;-69
2021/08/13 06:47:27;;;;;;;12.70;6.60;;;;;;;;;;4989672;28;20034;-69
2021/08/13 06:49:53;;;;;;;13.65;6.60;;;;;;;;;;4989208;28;20069;-69
2021/08/13 06:52:19;;;;;;;10.55;7.35;;;;;;;;;;4988216;28;20034;-69
2021/08/13 06:54:45;;;;;;;11.45;6.05;;;;;;;;;;4989200;28;20056;-69
2021/08/13 06:57:11;;;;;;;13.10;5.97;;;;;;;;;;4995170;28;20030;-70
2021/08/13 06:59:37;;;;;;;13.60;6.97;;;;;;;;;;5002724;28;20548;-69
2021/08/13 07:02:03;;;;;;;12.25;6.22;;;;;;;;;;4989868;28;20034;-69
2021/08/13 07:04:29;;;;;;;16.88;6.25;;;;;;;;;;4983259;28;20025;-69
2021/08/13 07:06:55;;;;;;;12.73;6.20;;;;;;;;;;4989542;28;20022;-69
2021/08/13 07:09:21;;;;;;;10.85;5.88;;;;;;;;;;4988849;28;20022;-69
2021/08/13 07:11:47;;;;;;;11.55;6.43;;;;;;;;;;4988518;28;20521;-69
2021/08/13 07:14:13;;;;;;;10.07;4.95;;;;;;;;;;4990321;28;20392;-69
2021/08/13 07:16:39;;;;;;;6.57;3.90;;;;;;;;;;4985254;28;20034;-69
2021/08/13 07:19:05;;;;;;;6.80;3.75;;;;;;;;;;4985432;28;20546;-69
2021/08/13 07:21:31;;;;;;;8.82;3.90;;;;;;;;;;4986143;28;20102;-69
2021/08/13 07:23:57;;;;;;;7.65;3.42;;;;;;;;;;4996088;28;20018;-69
2021/08/13 07:26:23;;;;;;;6.88;3.47;;;;;;;;;;4993842;28;20507;-69
2021/08/13 07:28:49;;;;;;;9.35;3.10;;;;;;;;;;4986943;28;20029;-69
2021/08/13 07:31:15;;;;;;;8.80;3.45;;;;;;;;;;4991967;28;20546;-70
2021/08/13 07:33:41;;;;;;;7.75;3.25;;;;;;;;;;4991386;28;20177;-69
2021/08/13 07:36:06;;;;;;;5.93;3.47;;;;;;;;;;4992140;28;20051;-70
2021/08/13 07:38:39;;;;;;;10.00;3.28;;;;;;;;;;4992811;28;20096;-69
2021/08/13 07:41:05;;;;;;;5.90;3.22;;;;;;;;;;4990103;28;20014;-70
2021/08/13 07:43:31;;;;;;;9.82;2.92;;;;;;;;;;4987065;28;20380;-68
2021/08/13 07:45:57;;;;;;;5.60;2.60;;;;;;;;;;4989199;28;20026;-69
2021/08/13 07:48:23;;;;;;;5.13;2.30;;;;;;;;;;4984222;28;20031;-68
2021/08/13 07:50:49;;;;;;;4.72;2.20;;;;;;;;;;4985241;28;20153;-68
2021/08/13 07:53:15;;;;;;;6.05;2.65;;;;;;;;;;4977814;28;20041;-68
2021/08/13 07:55:41;;;;;;;4.10;2.17;;;;;;;;;;4981204;28;20411;-68
2021/08/13 07:58:07;;;;;;;4.88;2.08;;;;;;;;;;4975699;28;20039;-68
2021/08/13 08:00:33;;;;;;;5.05;2.50;;;;;;;;;;4977020;28;20057;-70
2021/08/13 08:02:59;;;;;;;4.00;1.83;;;;;;;;;;4982847;28;20033;-70
2021/08/13 08:05:25;;;;;;;4.55;2.05;;;;;;;;;;4990212;28;20030;-70
2021/08/13 08:07:51;;;;;;;3.53;2.22;;;;;;;;;;4981041;28;20073;-70
2021/08/13 08:10:17;;;;;;;6.40;2.80;;;;;;;;;;4971400;28;20117;-70
2021/08/13 08:12:43;;;;;;;8.02;2.88;;;;;;;;;;4991405;28;20053;-70
2021/08/13 08:15:10;;;;;;;5.85;2.65;;;;;;;;;;4982968;28;20085;-70
2021/08/13 08:17:36;;;;;;;5.45;2.40;;;;;;;;;;4974776;28;20118;-69
2021/08/13 08:20:03;;;;;;;9.73;3.10;;;;;;;;;;4987699;28;20030;-70
2021/08/13 08:22:29;;;;;;;8.50;2.97;;;;;;;;;;4988998;28;20049;-70
2021/08/13 08:24:55;;;;;;;7.22;2.70;;;;;;;;;;4988374;28;20135;-70
2021/08/13 08:27:21;;;;;;;6.70;2.70;;;;;;;;;;4984110;28;20029;-70
2021/08/13 08:29:47;;;;;;;8.75;2.58;;;;;;;;;;4981735;28;20062;-70
2021/08/13 08:32:13;;;;;;;6.18;2.28;;;;;;;;;;4996830;28;20109;-70
2021/08/13 08:34:39;;;;;;;4.07;2.78;;;;;;;;;;5006268;28;20546;-70
2021/08/13 08:37:09;;;;;;;8.23;2.75;;;;;;;;;;4994227;28;20404;-69
2021/08/13 08:39:43;;;;;;;4.55;2.33;;;;;;;;;;4999151;28;20068;-68
2021/08/13 08:42:13;;;;;;;4.90;2.55;;;;;;;;;;4994113;28;20041;-69
2021/08/13 08:44:39;;;;;;;5.75;2.33;;;;;;;;;;4994483;28;20018;-67
2021/08/13 08:47:05;;;;;;;5.75;2.70;;;;;;;;;;4989030;28;20057;-68
2021/08/13 08:49:32;;;;;;;10.43;2.42;;;;;;;;;;4995902;28;20121;-69
2021/08/13 08:51:58;;;;;;;6.72;2.40;;;;;;;;;;4984803;28;20030;-69
2021/08/13 08:54:26;;;;;;;5.22;2.20;;;;;;;;;;4980946;28;20035;-69
2021/08/13 08:56:53;;;;;;;6.57;2.13;;;;;;;;;;4990369;28;20117;-73
2021/08/13 08:59:22;;;;;;;9.95;2.35;;;;;;;;;;4991539;28;20041;-74
2021/08/13 09:01:48;;;;;;;3.67;1.73;;;;;;;;;;4993310;28;20031;-69
2021/08/13 09:04:14;;;;;;;6.57;1.70;;;;;;;;;;4996289;28;20030;-67
2021/08/13 09:06:41;;;;;;;5.15;1.95;;;;;;;;;;4990470;28;20026;-68
2021/08/13 09:09:07;;;;;;;3.67;1.75;;;;;;;;;;4988115;28;20053;-67
2021/08/13 09:11:38;;;;;;;3.83;1.80;;;;;;;;;;4988628;28;20069;-68
2021/08/13 09:14:05;;;;;;;5.38;2.00;;;;;;;;;;4979490;28;20384;-68
2021/08/13 09:16:32;;;;;;;5.57;2.08;;;;;;;;;;4979452;28;20127;-68
2021/08/13 09:18:59;;;;;;;6.22;2.17;;;;;;;;;;4979256;28;20109;-70
2021/08/13 09:21:25;;;;;;;4.95;2.00;;;;;;;;;;4996774;28;20029;-71
2021/08/13 09:23:59;;;;;;;4.90;1.58;;;;;;;;;;4949661;28;20161;-70
2021/08/13 09:26:26;;;;;;;5.65;2.20;;;;;;;;;;4971243;28;20373;-70
2021/08/13 09:28:54;;;;;;;7.22;1.95;;;;;;;;;;4974441;28;20465;-71
2021/08/13 09:31:22;;;;;;;5.65;1.77;;;;;;;;;;4971976;28;20150;-70
2021/08/13 09:33:56;;;;;;;4.72;1.77;;;;;;;;;;4967842;28;20023;-71
2021/08/13 09:36:26;;;;;;;6.68;1.88;;;;;;;;;;4975754;28;20109;-69
2021/08/13 09:39:04;;;;;;;8.23;2.30;;;;;;;;;;4964339;28;20094;-70
2021/08/13 09:41:43;;;;;;;5.75;1.95;;;;;;;;;;4968167;28;20022;-70
2021/08/13 09:44:09;;;;;;;7.72;2.33;;;;;;;;;;4969793;28;20389;-71
2021/08/13 09:46:35;;;;;;;7.45;2.20;;;;;;;;;;4969201;28;20046;-71
2021/08/13 09:49:15;;;;;;;7.50;2.30;;;;;;;;;;4968388;28;20511;-70
2021/08/13 09:51:45;;;;;;;5.18;1.40;;;;;;;;;;4957331;28;20057;-71
2021/08/13 09:54:11;;;;;;;5.07;1.65;;;;;;;;;;4958633;28;20038;-70
2021/08/13 09:56:41;;;;;;;7.78;2.13;;;;;;;;;;4974342;28;20027;-70
2021/08/13 09:59:07;;;;;;;6.93;1.80;;;;;;;;;;4959388;28;20043;-69
2021/08/13 10:02:02;;;;;;;5.95;2.17;;;;;;;;;;4955367;28;20046;-69
2021/08/13 10:04:32;;;;;;;12.15;2.00;;;;;;;;;;4948459;28;20106;-70
2021/08/13 10:06:59;;;;;;;6.25;1.95;;;;;;;;;;4955270;28;20602;-70
2021/08/13 10:09:29;;;;;;;5.50;1.60;;;;;;;;;;4956849;28;20122;-70
2021/08/13 10:11:59;;;;;;;8.27;2.05;;;;;;;;;;4964429;28;20041;-70
2021/08/13 10:14:34;;;;;;;7.97;2.38;;;;;;;;;;4963130;28;20031;-70
2021/08/13 10:17:11;;;;;;;6.13;1.60;;;;;;;;;;4973321;28;20050;-71
2021/08/13 10:19:38;;;;;;;6.55;2.10;;;;;;;;;;4979826;28;20749;-73
2021/08/13 10:22:04;;;;;;;7.38;2.10;;;;;;;;;;4961490;28;20045;-69
2021/08/13 10:24:30;;;;;;;12.30;2.38;;;;;;;;;;4965430;28;20105;-70
2021/08/13 10:26:57;;;;;;;6.50;2.00;;;;;;;;;;4962608;28;20519;-70
2021/08/13 10:29:23;;;;;;;8.18;2.15;;;;;;;;;;4957615;28;20027;-70
2021/08/13 10:31:49;;;;;;;5.30;1.33;;;;;;;;;;4954723;28;20785;-70
2021/08/13 10:34:15;;;;;;;8.10;1.58;;;;;;;;;;4970573;28;20023;-71
2021/08/13 10:36:42;;;;;;;8.50;2.03;;;;;;;;;;4953289;28;20031;-71
2021/08/13 10:39:09;;;;;;;9.40;2.00;;;;;;;;;;4952528;28;20070;-71
2021/08/13 10:41:38;;;;;;;13.25;2.75;;;;;;;;;;4951057;28;20511;-71
2021/08/13 10:44:04;;;;;;;;;;;;;;;;;;4950913;28;20030;-71
2021/08/13 10:46:32;;;;;;;7.10;1.70;;;;;;;;;;4950726;28;19910;-71
2021/08/13 10:48:58;;;;;;;9.60;2.15;;;;;;;;;;4958694;28;20084;-71
2021/08/13 10:51:33;;;;;;;5.53;1.80;;;;;;;;;;4962454;28;20035;-69
2021/08/13 10:54:06;;;;;;;8.70;1.42;;;;;;;;;;4968951;28;20145;-69
2021/08/13 10:56:39;;;;;;;9.13;2.03;;;;;;;;;;4972370;28;20035;-70
2021/08/13 10:59:05;;;;;;;8.02;1.88;;;;;;;;;;4959311;28;20097;-69
2021/08/13 11:01:31;;;;;;;7.65;1.73;;;;;;;;;;4954849;28;20019;-69
2021/08/13 11:03:57;;;;;;;10.98;2.35;;;;;;;;;;4960550;28;20110;-68
2021/08/13 11:06:44;;;;;;;6.07;2.05;;;;;;;;;;4958762;28;20019;-69
2021/08/13 11:09:10;;;;;;;13.05;2.03;;;;;;;;;;4981518;28;20035;-69
2021/08/13 11:12:03;;;;;;;8.43;2.10;;;;;;;;;;4967649;28;20511;-69
2021/08/13 11:14:30;;;;;;;6.53;2.08;;;;;;;;;;4959506;28;20456;-69
2021/08/13 11:16:56;;;;;;;6.35;1.92;;;;;;;;;;4962461;28;20492;-69
2021/08/13 11:19:23;;;;;;;9.93;2.25;;;;;;;;;;4961665;28;20481;-69
2021/08/13 11:21:50;;;;;;;6.63;1.58;;;;;;;;;;4968746;28;20027;-70
2021/08/13 11:24:17;;;;;;;7.70;2.25;;;;;;;;;;4964119;28;20121;-69
2021/08/13 11:26:52;;;;;;;5.90;1.73;;;;;;;;;;4965768;28;20023;-69
2021/08/13 11:29:45;;;;;;;7.07;1.90;;;;;;;;;;4955819;28;20058;-69
2021/08/13 11:32:13;;;;;;;8.02;2.00;;;;;;;;;;4964385;28;20031;-71
2021/08/13 11:34:49;;;;;;;9.33;2.07;;;;;;;;;;4964988;28;20054;-70
2021/08/13 11:37:30;;;;;;;6.57;2.10;;;;;;;;;;4959474;28;20267;-70
2021/08/13 11:40:00;;;;;;;7.53;1.88;;;;;;;;;;4958490;28;20030;-70
2021/08/13 11:42:31;;;;;;;5.05;1.20;;;;;;;;;;4960766;28;20103;-68
2021/08/13 11:44:57;;;;;;;9.25;2.53;;;;;;;;;;4957296;28;20369;-68
2021/08/13 11:47:23;;;;;;;10.95;2.47;;;;;;;;;;4963288;28;20031;-68
2021/08/13 11:49:49;;;;;;;9.68;2.05;;;;;;;;;;4972205;28;20306;-68
2021/08/13 11:52:19;;;;;;;9.07;2.22;;;;;;;;;;4963767;28;20038;-68
2021/08/13 11:54:45;;;;;;;5.50;1.80;;;;;;;;;;4963245;28;20089;-68
2021/08/13 11:57:12;;;;;;;9.43;2.13;;;;;;;;;;4955766;28;20606;-68
2021/08/13 11:59:38;;;;;;;9.68;2.17;;;;;;;;;;4954428;28;20027;-68
2021/08/13 12:02:04;;;;;;;9.15;2.13;;;;;;;;;;4964246;28;20050;-69
2021/08/13 12:04:30;;;;;;;9.65;1.80;;;;;;;;;;4963358;28;20030;-69
2021/08/13 12:07:08;;;;;;;12.00;2.17;;;;;;;;;;4962821;28;20481;-69
2021/08/13 12:09:37;;;;;;;7.32;1.80;;;;;;;;;;4968785;28;20109;-68
2021/08/13 12:12:04;;;;;;;11.13;2.55;;;;;;;;;;4963713;28;20397;-69
2021/08/13 12:14:30;;;;;;;9.65;2.38;;;;;;;;;;4973624;28;20031;-68
2021/08/13 12:16:56;;;;;;;10.98;2.22;;;;;;;;;;4968180;28;20464;-68
2021/08/13 12:19:22;;;;;;;7.65;2.17;;;;;;;;;;4965250;28;20504;-68
2021/08/13 12:22:04;;;;;;;7.53;2.10;;;;;;;;;;4960623;28;20030;-68
2021/08/13 12:24:41;;;;;;;8.30;2.03;;;;;;;;;;4956475;28;20050;-69
2021/08/13 12:27:08;;;;;;;7.38;1.55;;;;;;;;;;4970910;28;20401;-68
2021/08/13 12:29:35;;;;;;;7.68;2.30;;;;;;;;;;4961701;28;20616;-69
2021/08/13 12:32:02;;;;;;;7.45;1.95;;;;;;;;;;4955030;28;20023;-68
2021/08/13 12:34:30;;;;;;;8.73;1.90;;;;;;;;;;4954035;28;20031;-68
2021/08/13 12:37:02;;;;;;;6.47;1.60;;;;;;;;;;4956278;28;20038;-69
2021/08/13 12:39:28;;;;;;;11.98;1.92;;;;;;;;;;4956660;28;20027;-69
2021/08/13 12:41:54;;;;;;;11.23;1.77;;;;;;;;;;4966709;28;20038;-68
2021/08/13 12:44:20;;;;;;;8.85;1.95;;;;;;;;;;4960222;28;20019;-69
2021/08/13 12:46:46;;;;;;;9.63;2.03;;;;;;;;;;4960679;28;20054;-68
2021/08/13 12:49:13;;;;;;;7.00;1.73;;;;;;;;;;4963732;28;20062;-68
2021/08/13 12:51:39;;;;;;;9.95;2.40;;;;;;;;;;4963652;28;20027;-68
2021/08/13 12:54:25;;;;;;;7.95;1.70;;;;;;;;;;4959429;28;20523;-68
2021/08/13 12:56:58;;;;;;;10.57;2.65;;;;;;;;;;4966686;28;20031;-69
2021/08/13 12:59:31;;;;;;;7.78;1.40;;;;;;;;;;4971203;28;20030;-70
2021/08/13 13:01:57;;;;;;;9.07;2.38;;;;;;;;;;4961504;28;20425;-69
2021/08/13 13:04:36;;;;;;;5.43;1.45;;;;;;;;;;4967454;28;20094;-69
2021/08/13 13:07:02;;;;;;;10.88;1.98;;;;;;;;;;4962993;28;20011;-69
2021/08/13 13:09:32;;;;;;;6.90;2.20;;;;;;;;;;4971492;28;20042;-68
2021/08/13 13:12:16;;;;;;;7.50;1.90;;;;;;;;;;4955113;28;20516;-68
2021/08/13 13:14:43;;;;;;;10.30;1.77;;;;;;;;;;4965143;28;20147;-68
2021/08/13 13:17:10;;;;;;;13.55;2.05;;;;;;;;;;4963471;28;20426;-68
2021/08/13 13:19:36;;;;;;;11.90;2.05;;;;;;;;;;4969671;28;20545;-68
2021/08/13 13:22:19;;;;;;;7.80;1.92;;;;;;;;;;4970160;28;20379;-71
2021/08/13 13:24:46;;;;;;;9.88;1.90;;;;;;;;;;4970250;28;20046;-69
2021/08/13 13:27:12;;;;;;;7.72;1.55;;;;;;;;;;4971078;28;20324;-69
2021/08/13 13:29:42;;;;;;;12.60;1.98;;;;;;;;;;4967431;28;20692;-69
2021/08/13 13:32:19;;;;;;;8.75;2.08;;;;;;;;;;4965018;28;20027;-69
2021/08/13 13:34:58;;;;;;;7.30;1.83;;;;;;;;;;4983536;28;20035;-69
2021/08/13 13:37:24;;;;;;;9.40;2.08;;;;;;;;;;4966039;28;20026;-68
2021/08/13 13:39:50;;;;;;;10.50;2.30;;;;;;;;;;4960470;28;20363;-69
2021/08/13 13:42:17;;;;;;;4.95;1.38;;;;;;;;;;4971133;28;20035;-68
2021/08/13 13:44:43;;;;;;;8.52;2.05;;;;;;;;;;4968334;28;20038;-69
2021/08/13 13:47:09;;;;;;;9.45;2.22;;;;;;;;;;4975598;28;20030;-69
2021/08/13 13:49:35;;;;;;;6.45;1.80;;;;;;;;;;4966648;28;20110;-68
2021/08/13 13:52:01;;;;;;;8.45;1.80;;;;;;;;;;4967969;28;20109;-68
2021/08/13 13:54:27;;;;;;;6.22;2.25;;;;;;;;;;4976650;28;20039;-68
2021/08/13 13:56:53;;;;;;;12.32;2.63;;;;;;;;;;4960631;28;20362;-68
2021/08/13 13:59:19;;;;;;;8.50;1.85;;;;;;;;;;4965201;28;20027;-68
2021/08/13 14:01:46;;;;;;;6.20;1.98;;;;;;;;;;4966742;28;20034;-68
2021/08/13 14:04:12;;;;;;;8.48;1.85;;;;;;;;;;4978726;28;20450;-68
2021/08/13 14:06:38;;;;;;;9.35;2.15;;;;;;;;;;4962212;28;20035;-68
2021/08/13 14:09:04;;;;;;;11.38;2.75;;;;;;;;;;4968222;28;20366;-68
2021/08/13 14:11:30;;;;;;;9.90;1.75;;;;;;;;;;4975487;28;20112;-68
2021/08/13 14:13:57;;;;;;;10.57;2.38;;;;;;;;;;4960111;28;20022;-69
2021/08/13 14:16:24;;;;;;;8.02;2.38;;;;;;;;;;4981351;28;20029;-68
2021/08/13 14:18:50;;;;;;;10.18;2.15;;;;;;;;;;4974862;28;20121;-68
2021/08/13 14:21:16;;;;;;;14.48;2.70;;;;;;;;;;4962355;28;20119;-68
2021/08/13 14:23:41;;;;;;;10.27;2.55;;;;;;;;;;4970814;28;20073;-68
2021/08/13 14:26:07;;;;;;;14.25;2.60;;;;;;;;;;4955315;28;20054;-68
2021/08/13 14:28:33;;;;;;;12.35;2.50;;;;;;;;;;4948823;28;20505;-68
2021/08/13 14:31:01;;;;;;;13.02;2.90;;;;;;;;;;4967903;28;20031;-68
2021/08/13 14:33:27;;;;;;;11.25;1.92;;;;;;;;;;4957907;28;20041;-69
2021/08/13 14:35:53;;;;;;;11.88;2.67;;;;;;;;;;4963095;28;20109;-68